SMRA50 UAOL 301800
AAXX 30181
50136 14/57 /2101 11357 21392 39637 40245 57012 60001 333 11215 21357 3/107 59009 70000 90761 91107=
50353 14/80 /3104 11237 21316 39939 40178 57005 60001 333 11204 21241 3/106 58016 70000 90761 91112=
50434 14/76 /2002 11367 21403 39297 40309 57003 60001 333 11259 21373 31106 4/017 58021 70000 90761 91108=
50468 14/80 /2902 11242 21313 39961 40190 57004 60001 333 11195 21242 3/103 58029 70001 90761 91106=
50527 14/80 /2103 11321 21360 39435 40326 57005 60001 333 11244 21322 3/118 4/004 58013 70000 90761 91107=
50548 14/80 /0401 11305 21332 39855 40252 54000 60001 333 11203 21305 3/112 4/008 58023 70000 90761 91109=
50557 04980 /2403 11256 21313 39900 40234 52001 60002 70000 333 11206 21258 =
50557 14/80 /2403 11256 21313 39900 40234 52001 60001 333 11206 21258 3/110 58023 70000 90761 91109=
50564 14/80 /2603 11250 21309 39884 40206 57003 60001 333 11193 21250 3/104 58033 70000 90761 91107=
50603 14/80 /2803 11257 21293 39571 40302 57008 60001 333 11180 21274 3/125 58001 70000 90761 91109=
50632 14/80 /2601 11273 21325 39300 40296 57001 60001 333 11233 21277 31110 4/005 58018 70000 90761 91116=
50727 14/57 /3402 11275 21306 39020 40337 54000 69961 70500 333 11225 21291 3/104 4/006 58003 70019 90761 91116=
50745 14/80 /2401 11249 21296 30055 40258 57002 60001 333 11161 21249 3/106 58002 70000 90761 91105=
50756 14/77 /2603 11253 21300 39934 40238 57001 60001 333 11200 21265 3/111 58012 70000 90761 91107=
50774 14/80 /2604 11228 21284 39865 40227 57005 60001 333 11192 21233 3/114 58030 70000 90761 91115=
50788 14/80 /2704 11211 21274 30117 40209 52003 60001 333 11155 21211 3/110 58045 70000 90761 91116=
50844 14/80 /0000 11263 21301 30077 40269 57003 60001 333 11138 21263 3/111 59007 70000 90761 91109=
50854 14/80 /2001 11227 21283 30058 40264 52003 60001 333 11157 21227 3/112 58001 70000 90761 91112=
50915 14/80 /3103 11242 21281 39268 40377 57002 60001 333 11174 21270 3/112 4/006 59006 70001 90761 91111=
50949 14/71 /2502 11170 21257 30093 40279 57003 60001 333 11129 21186 3/113 59017 70000 90761 91112=
50953 14/80 /2602 11213 21265 30102 40265 52006 60001 333 11150 21213 3/110 58000 70000 90761 91112=
50963 14/80 /2604 11220 21257 30103 40254 52005 60001 333 11155 21230 3/103 58011 70001 90761 91115=
50968 14/80 /2604 11170 21239 30011 40268 54000 60001 333 11154 21190 3/105 59001 70000 90761 91112=
50978 14/80 /2702 11175 21250 39873 40239 52001 60001 333 11153 21177 3/105 58027 70000 90761 91117=
51000 30181 99235 71538 46/// /2602 10247 20224 30140 40143 91740 22200 00252 333 91203 555 11025 22026 8//03 91738=
51001 30181 99245 71620 46/// /0805 10238 20197 30153 40155 91740 22200 00251 333 91207 555 11053 22057 8//06 91732=
51002 30181 99170 71577 46/// /0807 10247 20244 30129 40132 91740 22200 00263 333 91210 555 11080 22085 8//09 91731=
51003 30181 99192 71606 46/// /0506 10259 20233 30137 40140 91740 333 91208 555 11067 22071 8//06 91738=
51004 30181 99175 71522 46/// /1006 10260 20213 30118 40121 91740 22200 00263 333 91207 555 11062 22066 8//06 91738=
51076 04980 /3201 11230 21273 39458 40443 57017 60002 70000 333 11141 21286 =
51076 14/80 /3201 11230 21273 39458 40443 57017 60001 333 11141 21286 3/000 4/031 59094 70000 90761 91103=
51087 04980 /1201 11235 21286 39305 40452 57015 60002 70000 333 11178 21273 =
51087 14/80 /1201 11235 21286 39305 40452 57015 60001 333 11178 21273 3/000 4/028 59093 70000 90761 91103=
51101 30181 99244 71621 46/// /0604 10240 20215 30160 40163 91740 22200 00252 333 91206 555 11047 22049 8//05 91736=
51133 14/65 /3501 11132 21173 39636 40331 57024 60001 333 11067 21213 3/000 4/026 59103 70000 90761 91109=
51156 04980 /0103 11188 21258 38741 40389 57020 60002 70000 333 11096 21229 =
51156 14/80 /0103 11188 21258 38741 40389 57020 60001 333 11096 21229 3/119 59090 70000 90761 91104=
51201 30181 99217 71581 46/// ///// 1//// 91756 22200 00256 11503 21002 332// 41502 70015=
51202 30181 99214 71577 46/// ///// 1//// 91756 22200 00258 10902 20902 301// 41101 70009=
51206 30181 99198 71550 46/// ///// 1//// 91745 22200 00259 11403 20803 333// 41402 70016=
51208 30181 99223 71596 46/// ///// 1//// 91756 22200 00259 11403 20802 331// 41403 70016=
51213 30181 99208 71570 46/// ///// 1//// 91758 22200 00262 11502 20701 327// 41501 70008=
51243 04975 /2401 11173 21220 39815 40422 57023 60002 70000 333 11151 21207 =
51243 14/75 /2401 11173 21220 39815 40422 57023 60001 333 11151 21207 3/115 59104 70000 90761 91103=
51288 04980 /1702 11164 21280 38377 40397 57014 60002 70000 333 11115 21210 =
51288 14/80 /1702 11164 21280 38377 40397 57014 60001 333 11115 21210 3/109 59073 70000 90761 91103=
51334 04968 /3600 11152 21212 39966 40410 57024 60002 70000 333 11124 21200 =
51334 14/68 /0000 11152 21212 39966 40410 57024 60001 333 11124 21200 3/116 59110 70000 90761 91103=
51379 04932 /1901 11262 21295 39380 40440 57018 60002 70500 333 11156 21295 =
51379 14/32 /1901 11262 21295 39380 40440 57018 60001 70500 333 11156 21295 3/107 4/015 59105 70000 90761 91103=
51431 04956 /0801 11010 21067 39466 40285 57013 60002 70500 333 10027 21122 =
51431 14/56 /0801 11010 21067 39466 40285 57013 60001 70500 333 10027 21122 3/102 4/004 59068 70000 90761 91104=
51463 04936 /0801 11196 21223 39201 40414 57019 60002 71000 333 11140 21218 =
51463 14/36 /0801 11196 21223 39201 40414 57019 60001 71000 333 11140 21218 3/000 4/010 59102 70000 90761 91104=
51467 04958 /0301 11139 21233 38274 40402 57012 60002 70000 333 11072 21183 =
51467 14/58 /0301 11139 21233 38274 40402 57012 60001 333 11072 21183 3/113 59047 70000 90761 91109=
51495 14/72 /0104 11151 21326 39506 40443 57018 60001 333 11088 21186 3/117 59053 70000 90761 91105=
51573 04963 /0701 11088 21262 30388 40442 57014 60002 70000 333 11049 21124 =
51573 14/63 /0701 11088 21262 30388 40442 57014 60001 333 11049 21124 3/114 59058 70000 90761 91103=
51644 04956 /2801 11107 21201 39063 40404 57017 60002 70500 333 11034 21130 =
51644 14/56 /2801 11107 21201 39063 40404 57017 60001 70500 333 11034 21130 3/113 59053 70000 90761 91104=
51656 04961 /2102 11111 21257 39279 40412 57015 60002 70000 333 11041 21140 =
51656 14/61 /2102 11111 21257 39279 40412 57015 60001 333 11041 21140 3/110 59053 70000 90761 91107=
51709 04926 /1200 11070 21167 38725 40396 57012 60002 70500 333 11042 21081 =
51709 14/26 /1200 11070 21167 38725 40396 57012 60001 70500 333 11042 21081 3/109 59039 70000 90761 91104=
51711 04931 /0701 11138 21201 38067 40363 57016 60002 71000 333 11087 21152 =
51711 14/31 /0701 11138 21201 38067 40363 57016 60001 71000 333 11087 21152 3/117 59045 70000 90761 91106=
51716 04939 /3600 11083 21187 39027 40401 57011 60002 70500 333 11025 21099 =
51716 14/39 /0000 11083 21187 39027 40401 57011 60001 70500 333 11025 21099 3/109 59046 70000 90761 91104=
51730 14/59 /1501 11110 21154 39149 40410 57014 60001 333 11032 21132 3/111 59052 70000 90761 91103=
51747 14/50 /2901 11164 21266 39043 40428 57010 60001 70500 333 11050 21173 3/117 59049 70000 90761 91105=
51765 04959 /1901 11118 21239 39352 40427 57012 60002 70000 333 11050 21143 =
51765 14/59 /1901 11118 21239 39352 40427 57012 60001 333 11050 21143 3/118 59051 70000 90761 91104=
51777 04956 /3600 11116 21163 39298 40424 57016 60002 71000 333 11049 21116 =
51777 14/56 /0000 11116 21163 39298 40424 57016 60001 71000 333 11049 21116 3/114 59050 70000 90761 91104=
51811 04926 /0600 11077 21212 38898 40400 57006 60002 70500 333 11029 21087 =
51811 14/26 /0600 11077 21212 38898 40400 57006 60001 70500 333 11029 21087 3/113 59039 70000 90761 91104=
51818 04927 /1501 11077 21243 38735 40390 57007 60002 70500 333 11021 21108 =
51818 14/27 /1501 11077 21243 38735 40390 57007 60001 70500 333 11021 21108 3/112 59042 70000 90761 91104=
51828 04919 /0902 11079 21254 38732 40388 57005 60002 70500 333 11033 21090 =
51828 14/19 /0902 11079 21254 38732 40388 57005 60001 70500 333 11033 21090 3/111 59043 70000 90761 91104=
51886 04980 /1402 11050 21181 37132 40236 57001 60002 70000 333 10040 21078 =
51886 14/80 /1402 11050 21181 37132 40236 57001 60001 333 10040 21078 3/109 58003 70000 90761 91114=
52112 14/60 /2701 11183 21310 39799 40440 57013 60001 333 11098 21208 3/119 59077 70000 90761 91104=
52200 30181 99134 11448 46/// ///// 1//// 91756 22200 00294 11003 21003 307// 41101 70017=
52202 30181 99137 11448 46/// ///// 1//// 91756 22200 00295 11105 21004 302// 41103 70024=
52203 04958 /0802 11188 21241 39478 40452 57016 60002 70000 333 11077 21196 =
52203 14/58 /0802 11188 21241 39478 40452 57016 60001 333 11077 21196 3/124 59052 70000 90761 91104=
52211 30181 99153 11457 46/// ///// 1//// 91756 22200 00291 11106 21004 303// 41104 70028=
52267 14/80 /2202 11147 21268 39239 40439 57015 60001 333 11086 21205 3/121 59061 70000 90761 91105=
52323 14/80 /2603 11226 21309 38297 40471 57015 60001 333 11082 21313 3/125 59041 70000 90761 91108=
52378 14/77 /2005 11174 21281 39224 40453 57013 60001 333 11091 21217 3/114 59058 70000 90761 91106=
52418 04959 /2101 11147 21177 39003 40433 57012 60002 70000 333 11076 21165 =
52418 14/59 /2101 11147 21177 39003 40433 57012 60001 333 11076 21165 3/116 59046 70000 90761 91103=
52495 14/73 /0000 11216 21319 38797 40427 57009 60001 333 11099 21270 3/122 59043 70000 90761 91105=
52533 14/58 /2202 11143 21175 38619 40429 57018 60001 333 11066 21170 3/120 59040 70000 90761 91103=
52602 04964 /3302 11107 21198 37289 40312 57005 60002 70000 333 11013 21108 =
52602 14/64 /3302 11107 21198 37289 40312 57005 60001 333 11013 21108 3/114 58006 70000 90761 91108=
52652 14/61 /1501 11150 21173 38644 40433 57013 60001 333 11058 21196 3/116 59028 70000 90761 91106=
52681 04961 /3201 11137 21239 38749 40437 57013 60002 70000 333 11078 21177 =
52681 14/61 /3201 11137 21239 38749 40437 57013 60001 333 11078 21177 3/116 59038 70000 90761 91104=
52713 14/80 /1901 11126 21198 36922 40294 57013 60001 333 11011 21126 3/116 58003 70000 90761 91109=
52737 14/67 /3401 11104 21167 37092 40267 57008 60001 333 10023 21104 3/112 58010 70000 90761 91111=
52754 14/80 /3403 11101 21233 36789 40231 57006 60001 333 11001 21109 3/114 58008 70000 90761 91119=
52787 14/80 /1403 11172 21198 37037 40399 57011 69921 333 11103 21172 3/109 4/002 59001 70005 90761 91112=
52818 04980 /1800 11058 21161 37250 40243 57017 60002 70000 333 10032 21075 =
52818 14/80 /1800 11058 21161 37250 40243 57017 60001 333 10032 21075 3/112 4/001 59003 70000 90761 91104=
52836 14/80 /3301 11077 21171 36912 40261 57012 60001 333 11001 21089 3/113 58000 70000 90761 91111=
52866 14/71 /1503 11120 21213 37628 40380 57004 60001 333 11039 21152 3/113 59010 70000 90761 91112=
52908 04980 /2804 11107 21203 35765 40190 57004 60002 70000 333 11036 21162 =
52955 14/73 /1202 11085 21168 36978 40214 57008 60001 333 10058 21092 3/112 58008 70000 90761 91108=
52983 14/57 /2001 11135 21170 38187 40407 57012 60001 70500 333 11055 21142 3/115 59018 70000 90761 91103=
53068 14/80 /2803 11209 21270 39165 40415 57012 60001 333 11144 21214 3/119 59036 70000 90761 91111=
53149 14/80 /2806 11191 21299 38871 40428 57014 60001 333 11141 21240 3/122 59046 70000 90761 91113=
53192 14/80 /3005 11235 21268 38923 40409 57010 60001 333 11181 21278 3/122 4/001 59017 70000 90761 91113=
53231 14/80 /1905 11213 21327 38575 40476 57011 60001 333 11156 21250 3/125 59041 70000 90761 91108=
53276 14/80 /2604 11195 21287 38957 40426 57014 60001 333 11139 21215 3/122 59037 70000 90761 91115=
53336 14/70 /2601 11205 21303 38815 40443 57013 60001 333 11117 21236 31126 59047 70000 90761 91110=
53352 14/80 /1401 11206 21315 38712 40441 57011 60001 333 11124 21235 3/125 59041 70000 90761 91111=
53391 14/80 /2803 11225 21281 38566 40429 57011 60001 333 11155 21234 31124 59024 70000 90761 91115=
53463 04980 /3103 11175 21279 38977 40440 57007 60002 70000 333 11096 21231 =
53463 14/80 /3103 11175 21279 38977 40440 57007 60001 333 11096 21231 31120 59049 70000 90761 91108=
53480 14/80 /2001 11195 21292 38658 40429 57007 60001 333 11127 21214 3/121 59034 70000 90761 91111=
53487 14/71 /3301 11216 21275 39094 40445 57004 60001 333 11093 21242 3/119 59041 70000 90761 91110=
53502 14/80 /2302 11169 21276 39141 40449 57011 60001 333 11076 21223 3/120 59049 70000 90761 91106=
53513 14/80 /2001 11154 21262 39113 40433 57013 60001 333 11083 21198 3/121 59054 70000 90761 91106=
53529 14/80 /3003 11158 21287 38730 40449 57010 60001 333 11101 21241 3/120 59047 70000 90761 91107=
53543 14/80 /2703 11158 21322 38630 40440 57009 60001 333 11116 21206 3/117 59039 70000 90761 91109=
53564 14/69 /1402 11158 21222 39130 40450 57007 60001 333 11090 21191 3/115 59050 70000 90761 91104=
53588 14/80 /2605 11205 21343 37793 40425 57005 60001 333 11176 21253 3/118 59020 70000 90761 91123=
53593 14/62 /2301 11157 21238 39260 40425 57006 60001 333 11088 21165 3/117 59041 70000 90761 91109=
53614 14/67 /3402 11128 21182 39039 40432 57012 60001 333 11076 21144 3/116 59054 70000 90761 91104=
53646 14/80 /2901 11154 21260 38989 40450 57003 60001 333 11075 21191 3/114 59051 70000 90761 91107=
53673 14/76 /2701 11132 21234 39361 40418 57005 60001 333 11053 21148 3/111 59052 70000 90761 91112=
53698 14/70 /0000 11080 21136 30268 40387 57008 60001 333 11007 21080 3/111 59053 70000 90761 91106=
53705 14/61 /2201 11110 21217 38960 40425 57013 60001 333 11061 21136 3/114 59045 70000 90761 91104=
53723 14/73 /0000 11155 21236 38769 40444 57010 69911 333 11079 21184 3/117 59041 70001 90761 91104=
53772 14/74 /1902 11106 21219 39431 40420 57004 60001 333 11058 21146 3/109 59045 70000 90761 91107=
53798 14/73 /2902 11071 21146 30149 40389 57002 60001 333 11016 21098 3/110 59049 70000 90761 91106=
53845 14/80 /0801 11139 21214 38971 40452 57005 60001 333 11086 21151 3/112 59038 70000 90761 91105=
53863 14/59 /2403 11082 21248 39476 40420 57001 60001 333 11037 21118 3/110 59038 70000 90761 91110=
53898 14/62 /3101 11053 21108 30136 40390 52003 60001 333 11007 21063 3/103 59047 70000 90761 91107=
53915 14/63 /2801 11118 21180 38643 40428 57013 60001 333 11061 21122 3/108 59026 70000 90761 91103=
53923 14/68 /3501 11097 21197 38691 40421 57017 60001 333 11074 21120 3/112 59030 70000 90761 91104=
53959 14/57 /0601 11063 21166 39947 40434 54000 60001 333 11023 21067 3/105 59023 70000 90761 91108=
53975 14/80 /3001 11063 21274 39581 40415 52006 60001 333 11016 21069 3/107 59021 70000 90761 91107=
54012 14/80 /2704 11231 21275 39073 40379 57002 60001 333 11179 21254 3/115 4/003 59014 70000 90761 91114=
54026 14/80 /2803 11160 21243 39956 40309 57008 60001 333 11119 21191 3/118 59029 70000 90761 91111=
54027 14/80 /2910 11159 21256 39558 40327 57005 60001 333 11125 21207 3/118 59024 70000 90761 91119=
54049 14/72 /0204 11155 21255 30044 40306 57006 60001 333 11115 21180 3/114 59020 70000 90761 91115=
54094 14/80 /2405 11159 21242 39856 40265 52005 60001 333 11149 21185 3/105 58020 70000 90761 91115=
54102 14/80 /2701 11224 21270 39094 40400 57008 60001 333 11166 21244 3/116 4/002 59019 70000 90761 91110=
54115 14/80 /2605 11171 21267 39284 40352 57009 60001 333 11137 21204 3/119 59019 70000 90761 91112=
54135 14/80 /2503 11149 21239 30075 40318 57015 60001 333 11093 21180 3/117 59035 70000 90761 91111=
54157 14/68 /2203 11159 21229 30084 40327 57003 60001 333 11110 21182 3/112 59019 70000 90761 91114=
54161 14/62 /2505 11156 21254 39987 40305 52001 60001 333 11124 21185 3/107 59018 70000 90761 91113=
54186 14/61 /2504 11169 21238 39597 40294 57002 60001 333 11159 21204 3/103 58004 70000 90761 91113=
54208 14/80 /2603 11204 21271 38824 40407 57012 60001 333 11149 21224 3/123 59017 70000 90761 91114=
54218 14/80 /2804 11152 21266 39502 40366 57013 60001 333 11079 21194 3/118 59022 70000 90761 91114=
54236 14/80 /2002 11126 21216 30231 40339 57011 60001 333 11071 21152 3/109 59033 70000 90761 91110=
54273 14/80 /2603 11151 21232 39965 40319 52003 60001 333 11137 21192 3/103 59013 70000 90761 91113=
54292 14/79 /2504 11144 21240 39940 40285 57006 60001 333 11139 21165 3/107 58013 70000 90761 91115=
54308 14/80 /1401 11165 21262 39439 40387 57008 60001 333 11072 21178 3/120 59031 70000 90761 91112=
54311 14/80 /3103 11165 21267 39229 40373 57011 60001 333 11110 21191 3/119 59020 70000 90761 91115=
54324 14/80 /2001 11118 21245 30124 40356 57008 60001 333 11046 21146 3/109 59036 70000 90761 91110=
54337 14/80 /3302 11092 21248 30268 40357 57003 60001 333 11044 21131 3/109 59034 70000 90761 91105=
54342 14/80 /2503 11101 21244 30281 40350 57002 60001 333 11079 21146 3/110 59027 70000 90761 91109=
54346 14/80 /0303 11109 21234 30107 40355 52002 60001 333 11090 21158 3/104 59019 70000 90761 91111=
54374 14/58 /0202 11195 21209 39834 40346 57009 60001 333 11140 21197 3/105 58003 70000 90761 91106=
54377 14/64 /0003 11159 21180 30047 40350 57008 60001 333 11099 21159 3/107 58010 70000 90761 91105=
54386 14/66 /1301 11241 21270 39321 40392 57005 60001 333 11156 21243 3/000 58017 70000 90761 91108=
54401 14/80 /3304 11132 21271 39422 40413 57004 60001 333 11078 21172 3/118 59042 70000 90761 91112=
54405 14/80 /2805 11106 21273 39658 40396 57005 60001 333 11068 21145 3/112 59048 70000 90761 91116=
54423 14/77 /3102 11121 21254 39828 40379 57005 60001 333 11049 21166 3/116 59036 70000 90761 91109=
54436 14/80 /2401 11122 21194 30036 40372 52002 60001 333 11041 21154 3/111 59034 70000 90761 91109=
54471 14/80 /0602 11096 21167 30351 40358 52007 60001 333 11060 21134 3/109 59035 70000 90761 91107=
54493 14/67 /0000 11160 21191 30004 40352 57010 60001 333 11097 21160 3/109 58001 70000 90761 91108=
54497 14/65 /2401 11122 21174 30331 40351 57010 60001 333 11071 21135 3/107 59004 70000 90761 91108=
54511 14/80 /3002 11050 21240 30331 40376 57006 60001 333 11010 21108 3/114 59051 70000 90761 91111=
54539 14/80 /2702 11077 21168 30353 40366 57005 60001 333 11027 21118 3/107 59053 70000 90761 91108=
54602 14/80 /2200 11087 21153 30356 40380 57010 60001 333 11003 21112 3/109 59057 70000 90761 91105=
54618 14/80 /2302 11060 21174 30367 40386 57010 60001 333 11024 21103 3/107 59057 70000 90761 91106=
54662 14/80 /3002 11025 21123 30223 40344 57012 60001 72200 333 11025 21098 3/000 59029 70017 90761 91110=
54715 14/60 /1101 11086 21121 30363 40388 57010 60001 333 11024 21095 3/104 59050 70000 90761 91107=
54725 14/70 /2602 11067 21152 30369 40386 57010 60001 333 11025 21105 3/104 59049 70000 90761 91108=
54751 14/80 /3407 11005 21102 30297 40350 57009 60001 333 11004 21049 3/102 59024 70003 90761 91117=
54753 14/72 /2905 11006 21076 30352 40360 57015 60001 333 11005 21043 3/102 59032 70002 90761 91111=
54776 14/71 /2904 11021 21031 30282 40346 57005 60021 72200 333 10000 21032 3/101 58005 70034 90761 91117=
54808 14/69 /1801 11067 21122 30340 40393 57003 60001 333 11016 21073 3/101 59037 70000 90761 91103=
54823 14/80 /1101 11070 21162 30169 40393 57008 60001 333 11017 21086 3/103 59040 70000 90761 91105=
54826 14/80 /3506 11139 21289 38528 40403 57004 60001 333 11114 21185 58001 70000 90761 91116=
54836 14/80 /2801 11059 21170 39989 40385 57011 60001 333 11025 21084 3/105 59030 70000 90761 91106=
54843 14/80 /2802 11050 21181 30353 40384 57013 60001 333 11016 21063 3/103 59032 70000 90761 91107=
54857 04980 /3306 11041 21154 30271 40372 57015 60002 70000 333 11024 21052 =
54857 14/80 /3306 11041 21154 30271 40372 57015 60001 333 11024 21052 3/102 59003 70002 90761 91114=
54863 14/80 /2905 11037 21124 30309 40364 57015 60001 333 11008 21047 3/104 59005 70000 90761 91108=
54909 14/71 /1902 11039 21125 30328 40397=
54916 14/80 /3102 11037 21184 30325 40383 57006 60001 333 11009 21050 3/101 59028 70000 90761 91106=
54929 14/75 /2502 11038 21154 30172 40385 57009 60001 333 11009 21059 3/102 59023 70000 90761 91108=
54945 14/80 /3502 11044 21190 30299 40385 57007 60001 333 11022 21056 3/102 59010 70000 90761 91109=
55299 04962 /0102 11119 21243 35868 40171 57004 60002 70000 333 10043 21143 =
55299 14/62 /0102 11119 21243 35868 40171 57004 60001 333 10043 21143 3/119 59013 70000 90761 91116=
55591 04980 /1002 10013 21171 36524 40067 52005 60002 70000 333 10151 21022 =
55591 14/80 /1002 10013 21171 36524 40067 52005 60001 333 10151 21022 3/109 59016 70000 90761 91104=
56004 04980 /2901 11127 21194 35830 40214 57005 60002 70000 333 11001 21142 =
56004 14/80 /2901 11127 21194 35830 40214 57005 60001 333 11001 21142 3/113 58001 70000 90761 91115=
56018 04980 /1101 11063 21160 36180 40113 57004 60002 70000 333 10065 21130 =
56018 14/80 /1101 11063 21160 36180 40113 57004 60001 333 10065 21130 3/107 59013 70000 90761 91115=
56021 14/74 /0301 11112 21198 36079 40183 57008 60001 333 10022 21172 3/112 58003 70000 90761 91116=
56029 14/77 /2401 11095 21152 36454 40131 57003 60001 333 10089 21139 3/105 59004 70000 90761 91114=
56033 14/78 /0401 11113 21183 36021 40217 57007 60001 333 11034 21174 3/105 4/003 58008 70000 90761 91115=
56046 14/75 /0701 11078 21153 36258 40158 57010 60001 333 10038 21152 3/111 59001 70000 90761 91115=
56065 14/68 /0000 11089 21139 36630 40204 57003 60001 333 10050 21132 3/107 58008 70000 90761 91113=
56080 14/62 /3002 11115 21152 37167 40311 57008 60001 333 10001 21120 3/110 58001 70000 90761 91107=
56096 14/73 /1401 10020 21102 39064 40353 57009 60001 333 10026 20001 3/101 59007 70000 90761 91103=
56106 59011 85820 81923 86070=
56146 14/76 /0901 11037 21103 36723 40070 57004 60001 333 10145 21068 3/110 59015 70001 90761 91111=
56187 14/61 /3002 10042 20022 39661 40332 57005 60001 333 10087 20039 3/005 58050 70000 90761 91108=
56196 14/80 /0403 10046 21063 39694 40335 54000 60001 333 10072 20039 3/004 58051 70000 90761 91111=
56287 14/60 /3500 10043 20030 39577 40341 57006 69921 333 10108 20040 3/006 58057 70026 90761 91104=
56299 82819 83360 86280=
56444 14/80 /2802 11017 21064 36833 40170 57008 60001 333 10110 21034 3/102 59012 70000 90761 91109=
56492 14/41 /3203 10039 20039 39709 40327 52001 69991 72100 333 10111 20038 3/006 58062 70031 90761 91108=
56571 14/80 /0500 10106 20032 38378 40086 52004 60001 333 10238 20068 3/009 59020 70000 90761 91107=
56684 14/66 /0504 10041 20018 37848 40167 52014 60001 333 10198 20040 3/004 58006 70000 90761 91111=
56739 14/80 /1401 10088 20077 38331 40159 57002 60001 333 10220 20059 3/008 59009 70000 90761 91108=
56751 14/80 /1201 10121 20068 38030 40111 54000 60001 333 10224 20047 3/007 59008 70000 90761 91113=
56778 14/80 /2401 10109 20066 38128 40124 57001 60001 333 10231 20082 3/008 58002 70000 90761 91109=
56786 14/73 /1803 10137 20096 38117 40103 52002 60001 333 10228 20061 3/009 58004 70000 90761 91111=
56951 14/80 /1701 10126 20100 38386 40136 57003 60001 333 10250 20090 3/010 59004 70000 90761 91107=
56964 14/61 /0000 10159 20137 38607 40135 57004 60001 333 10251 20126 3/014 58003 70000 90761 91106=
56977 14/68 /0000 10141 20139 38757 40145 57003 60001 333 10251 20123 3/015 58008 70000 90761 91106=
57006 60001 333 11028 21048 3/103 59023 70000 90761 91107=
57014 60001 333 10014 21024 3/000 59011 70000 90761 91103=
57025 14/61 /2802 11076 21091 39437 40426=
57046 14/76 /3005 11145 21260 37993 40445 57009 60001 333 11130 21163 59019 70008 90761 91108=
57067 14/76 /0301 11048 21166 39584 40416=
57071 14/64 /3003 11025 21177 39981 40403 52003 60001 333 11001 21027 3/104 59023 70000 90761 91108=
57083 14/67 /2301 11009 21103 30245 40389=
57127 14/80 /0801 10007 21027 39753 40390=
57131 14/70 /0500 11044 21083 39898 40422=
57178 14/64 /2503 11024 21050 30161 40396=
57193 14/72 /2201 11026 21102 30325 40395=
57245 14/// ///// 29000 60001 333 10040 20016 3/001 70000 90761 91106=
57259 14/65 /2701 11008 21041 39859 40402=
57265 14/59 /2101 11023 21039 30225 40398=
57279 14/66 /3102 11013 21068 30238 40401=
57290 14/59 /2701 11032 21079 30255 40394=
57297 14/80 /3402 11023 21123 30243 40393=
57328 14/80 /0203 10044 21010 39899 40328=
57348 14/80 /0404 10047 21029 39967 40340 52002 60001 333 10088 20046 3/004 58034 70000 90761 91113=
57399 14/77 /3604 11007 21088 30277 40374=
57411 14/50 /0205 10031 20031 39896 40329 52002 60011 72100 333 10068 20031 3/005 58064 70102 90761 91110=
57447 14/80 /0402 10026 21037 39791 40356 57007 60001 72100 333 10074 20026 3/004 58034 70000 90761 91106=
57461 14/69 /0701 11005 21047 30060 40388 57019 60001 72300 333 10034 21007 3/001 58002 70002 90761 91105=
57494 04980 /3604 10000 21084 30342 40374 57017 60002 70000 333 10034 20000 =
57494 14980 /3604 10000 21084 30342 40374=
57516 14458 /0901 10082 20048 39985 40304 54000 60001 333 10109 20081 3/008 58072 70074 90761 91109=
57554 14/57 80702 11008 21028 39975 40380 57003 60021 75476 333 10047 21008 3/000 58033 70025 90761 91109=
57662 14/56 83503 11009 21026 30190 40385 57005 60021 76860 333 10030 21009 3/000 58018 70074 90761 91113=
57687 14/63 83407 11011 21041 30204 40359 57010 69911 76876 333 10026 21011 3/000 58035 70008 90761 91112=
57745 14/65 80304 11003 21045 30024 40371 52005 60001 333 10047 21003 3/000 58051 70026 90761 91110=
57793 14/57 /0802 10019 20009 30171 40338 57008 69951 71000 333 10089 20017 3/003 58058 70022 90761 91108=
57799 14/67 /0304 10018 20000 30241 40333=
57816 14/63 /0104 11012 21022 38869 40325 52003 69981 76665 333 10051 21012 3/001 58040 70012 90761 91109=
57866 14/57 80000 10003 21015 30128 40349 57006 60021 76000 333 10060 20002 3/002 58050 70034 90761 91111=
57957 14/80 /0205 10038 21004 30094 40301 52003 60001 72100 333 10110 20036 3/004 58060 70027 90761 91115=
57972 14/16 83404 11004 21007 39867 40331 57003 60031 75460 333 10071 21004 3/000 58047 70227 90761 91110=
57993 14/67 /3402 10035 20023 30135 40309 57004 69981 72150 333 10119 20035 3/005 58063 70378 90761 91107=
58027 14/75 /3102 11022 21159 30334 40389 57007 60001 333 11005 21033 3/101 59019 70000 90761 91106=
58040 14/79 /3501 11034 21094 30375 40384 57006 60001 333 11007 21054 3/102 59019 70000 90761 91108=
58102 14/69 /3001 11025 21123 30341 40393 57007 60001 333 11003 21029 3/102 59020 70000 90761 91107=
58141 14975 /3401 11018 21108 30361 40379 57011 60001 333 11002 21037 3/000 59011 70000 90761 91107=
58150 14/80 /2904 11006 21097 30365 40369 57007 60001 333 10024 21007 3/000 58001 70000 90761 91111=
58203 14/74 /3302 11031 21098 30349 40391 57011 60001 333 10002 21031 3/000 59010 70000 90761 91107=
58208 14/64 /3501 11020 21101 30338 40387 57013 60001 333 10012 21020 3/101 59008 70044 90761 91107=
58221 14/76 /0202 11014 21115 30344 40380 57014 60001 333 10015 21015 3/000 59010 70000 90761 91105=
58238 14/80 83604 11005 21102 30334 40381 57002 60001 333 10014 21007 3/000 58008 70000 90761 91108=
58251 14/79 /3402 11002 21068 30366 40372 57001 60001 333 10029 21008 3/001 58007 70000 90761 91108=
58265 14/74 /3206 10024 21005 30339 40345 57005 60001 333 10069 20024 3/002 58022 70015 90761 91112=
58314 14/73 /0402 11012 21096 30270 40383 57014 60001 333 10011 21012 3/000 59004 90761 91106=
58345 14/77 /3201 10004 21071 30367 40376 57002 60001 333 10017 20003 3/001 58015 70022 90761 91105=
58362 14/76 /3104 10040 21024 30336 40342 57006 60001 333 10069 20037 3/003 58025 70002 90761 91111=
58424 14977 /0404 11006 21074 30289 40371 57008 60001 333 10009 21006 3/000 58010 70027 90761 91113=
58457 14/40 /3404 10009 21006 30302 40358 52001 60021 76050 333 10053 20004 3/000 58030 70062 90761 91110=
58472 14/56 /3413 10065 20053 30205 40306 57010 69911 76860 333 10101 20060 3/006 58031 70061 90761 91119=
58477 14/39 /3402 10061 20049 30268 40314 57012 60031 76050 333 10098 20058 3/007 58038 70159 90761 91110=
58506 14/79 /0000 11056 21061 38945 40369 57006 60011 333 11044 21100 3/001 58008 70105 90761 91105=
58527 14/64 /0105 10003 21008 30217 40338 57002 69901 77460 333 10050 20002 3/001 58048 70006 90761 91112=
58606 14/37 /0204 11003 21022 30283 40345 57005 60021 77460 333 10041 21003 3/001 58040 70028 90761 91115=
58633 14/61 /0804 10024 20012 30236 40342 57003 60011 76050 333 10087 20023 3/004 58050 70032 90761 91110=
58666 14/67 /3613 10078 20064 30180 40292 57007 60001 76000 333 10124 20073 3/007 58053 70128 90761 91123=
58725 14/46 /2802 10050 20043 30026 40298 52002 60101 76050 333 10114 20050 3/007 58065 70316 90761 91106=
58752 14/66 /3102 10060 20046 30241 40289 57010 60061 76050 333 10127 20060 3/006 58048 70324 90761 91109=
58813 14/65 /0104 10021 20014 30103 40314 57001 69991 76050 333 10097 20021 3/004 58057 70231 90761 91109=
58834 14/80 /0403 10094 20075 30085 40273 54000 69991 333 10175 20094 3/011 58086 70515 90761 91107=
58847 04980 /0403 10113 20060 30162 40266 57005 60002 70000 333 10190 20112 =
58847 14/80 /0403 10113 20060 30162 40266 57005 60001 333 10190 20112 3/010 58067 70016 90761 91110=
58921 14/48 /3102 10092 20084 39947 40261 54000 60011 71000 333 10154 20091 3/012 58057 70109 90761 91105=
58926 14/61 /2801 10139 20126 39950 40236 52002 69911 333 10216 20138 3/015 58072 70167 90761 91104=
58944 14/47 /0206 10122 20104 30209 40248 57003 69921 76000 333 10181 20121 3/012 58051 70078 90761 91117=
59023 14/73 /0503 10068 20038 39959 40279 52006 69921 76050 333 10162 20067 3/008 58081 70002 90761 91108=
59082 14/80 /3204 10068 20052 30126 40278 57003 60001 333 10123 20068 3/009 58059 70009 90761 91109=
59096 14/80 /0406 10063 20022 39919 40267 57003 60001 333 10151 20063 3/008 58066 70000 90761 91113=
59102 14/80 /0504 10062 20027 39900 40273 57002 60001 333 10154 20062 3/008 58057 70000 90761 91111=
59117 14/80 /3003 10098 20063 30109 40252 52001 60001 333 10227 20098 3/011 58089 70011 90761 91107=
59134 14/80 /0407 10143 20089 30059 40228 57003 60001 333 10210 20142 3/013 58060 70000 90761 91114=
59211 14/65 /0902 10118 20079 30028 40240 52005 60001 72000 333 10240 20116 3/013 58113 70000 90761 91107=
59265 14/79 /0404 10080 20055 30100 40242 54000 60001 333 10165 20080 3/009 58072 70000 90761 91110=
59278 14/80 /0305 10122 20086 30155 40229 52001 60001 333 10233 20122 3/013 58079 70000 90761 91112=
59287 14/80 /3605 10112 20075 30142 40229 57004 60001 333 10225 20112 3/012 58076 70000 90761 91111=
59293 14/80 /0604 10093 20047 30164 40252 57002 60001 333 10233 20093 3/010 58098 70036 90761 91110=
59316 14/80 /2501 10167 20122 30213 40217 52001 60001 333 10234 20167 3/016 58066 70000 90761 91106=
59417 14/61 /0903 10130 20127 30061 40217 52003 60041 76050 333 10253 20130 3/014 58088 70038 90761 91109=
59431 14/41 /0305 10085 20076 30047 40234 52003 69941 333 10239 20085 3/011 58088 70021 90761 91111=
59456 14/80 /0304 10133 20101 30029 40199 52001 60001 333 10235 20133 3/014 58049 70000 90761 91110=
59493 14/80 /0304 10149 20105 30137 40214 52001 60001 333 10253 20149 3/017 58064 70000 90761 91109=
59501 14/80 /0203 10151 20107 30188 40209 57001 60001 333 10238 20151 3/016 58062 70000 90761 91107=
59644 14/74 /3606 10134 20106 30176 40190 52002 60001 333 10253 20134 3/016 58060 70000 90761 91111=
59658 14/80 /3603 10170 20150 30112 40176 57001 60001 333 10284 20170 3/020 58042 70000 90761 91109=
59663 14/80 /0406 10147 20116 30090 40199 57003 60001 333 10237 20147 3/015 58050 70000 90761 91111=
59673 14/80 /0309 10157 20124 30170 40198 52001 60001 333 10246 20156 3/016 58055 70000 90761 91119=
59758 14/32 /0704 10217 20209 30089 40164 57002 69941 333 10287 20217 3/022 58032 70004 90761 91110=
59838 14/80 /0603 10255 20243 30136 40144 57003 60001 333 10297 20236 3/027 58025 70000 90761 91106=
59845 14/62 /0702 10237 20212 39961 40155 52001 60001 333 10295 20221 3/024 58031 70000 90761 91108=
59948 14/58 /0608 10226 20226 39666 40144 57005 60001 333 10252 20214 3/022 58011 70001 90761 91115=
59981 14/65 /0504 10274 20252 30117 40124 57012 60001 333 10302 20259 3/025 58003 70000 90761 91110=
59985 14/68 /0504 10272 20256 30121 40127 57011 60001 333 10296 20261 3/025 58005 70000 90761 91109=



SMUS50 KWBC 301800
AAXX 30184